Time;durP1;ratioP1;P1;durP2;ratioP2;P2;SDS_P1;SDS_P2;PMS_P1;PMS_P2;Temp;Humidity;BMP_temperature;BMP_pressure;BME280_temperature;BME280_humidity;BME280_pressure;Samples;Min_cycle;Max_cycle;Signal;HPM_P1;HPM_P2
2024/01/30 00:00:35;;;;;;;21.75;15.95;;;11.40;99.90;;;11.77;100.00;102385.97;4993863;28;20139;-65
2024/01/30 00:03:04;;;;;;;21.63;15.77;;;11.50;99.90;;;11.82;100.00;102386.06;4992153;28;20066;-66
2024/01/30 00:05:32;;;;;;;22.42;16.25;;;11.60;99.90;;;11.95;100.00;102384.47;4992512;28;20070;-65
2024/01/30 00:08:01;;;;;;;20.17;14.90;;;11.70;99.90;;;12.01;99.39;102387.22;4992197;28;20053;-65
2024/01/30 00:10:30;;;;;;;21.73;15.35;;;11.80;99.90;;;12.07;99.02;102387.28;4992033;28;20060;-65
2024/01/30 00:12:59;;;;;;;21.07;15.33;;;11.80;99.90;;;12.03;98.52;102356.28;4992040;28;20484;-65
2024/01/30 00:15:27;;;;;;;22.98;15.55;;;11.90;99.90;;;12.06;98.82;102369.63;4991993;28;20162;-65
2024/01/30 00:17:56;;;;;;;18.33;14.63;;;11.80;99.90;;;11.99;98.46;102358.03;4990756;28;20053;-65
2024/01/30 00:20:25;;;;;;;20.60;14.93;;;11.80;99.90;;;11.95;98.94;102361.50;4992246;28;20367;-66
2024/01/30 00:22:53;;;;;;;20.45;14.48;;;11.80;99.90;;;12.08;98.64;102362.56;4991700;28;20062;-65
2024/01/30 00:25:22;;;;;;;19.20;14.95;;;11.80;99.90;;;12.02;98.71;102363.34;4991816;28;20042;-65
2024/01/30 00:27:52;;;;;;;17.48;14.55;;;11.80;99.90;;;12.21;97.99;102361.84;4991715;28;20061;-65
2024/01/30 00:30:21;;;;;;;18.13;14.37;;;11.90;99.90;;;12.26;97.45;102355.72;4991766;28;20499;-66
2024/01/30 00:32:49;;;;;;;19.00;13.93;;;12.00;99.90;;;12.36;96.99;102359.38;4991949;28;20042;-65
2024/01/30 00:35:18;;;;;;;17.08;13.55;;;12.00;99.90;;;12.36;96.75;102357.63;4991631;28;20096;-66
2024/01/30 00:37:46;;;;;;;16.67;12.82;;;12.10;99.90;;;12.42;95.91;102364.78;4992058;28;20070;-65
2024/01/30 00:40:17;;;;;;;25.20;14.77;;;12.10;99.90;;;12.48;95.66;102372.81;4991777;28;20046;-65
2024/01/30 00:42:46;;;;;;;19.10;13.35;;;12.20;99.90;;;12.47;95.10;102373.66;4991873;28;20048;-65
2024/01/30 00:45:17;;;;;;;19.58;13.43;;;12.20;99.90;;;12.48;95.07;102370.16;4991835;28;20048;-66
2024/01/30 00:47:46;;;;;;;20.27;14.25;;;12.20;99.90;;;12.55;94.82;102374.66;4991673;28;20047;-65
2024/01/30 00:50:14;;;;;;;18.50;13.02;;;12.20;99.90;;;12.53;94.46;102371.09;4991660;28;20043;-65
2024/01/30 00:52:44;;;;;;;22.80;14.18;;;12.20;99.90;;;12.53;94.15;102373.75;4991605;28;20554;-65
2024/01/30 00:55:14;;;;;;;19.08;13.73;;;12.30;99.90;;;12.58;94.11;102367.59;4991846;28;20126;-66
2024/01/30 00:57:42;;;;;;;16.17;13.77;;;12.30;99.90;;;12.53;94.32;102371.09;4990194;28;20050;-65
2024/01/30 01:00:17;;;;;;;15.98;13.20;;;12.20;99.90;;;12.59;93.98;102360.53;4991579;28;20042;-65
2024/01/30 01:02:45;;;;;;;16.40;14.00;;;12.30;99.90;;;12.58;93.85;102367.59;4991992;28;20077;-66
2024/01/30 01:05:14;;;;;;;19.25;14.15;;;12.30;99.90;;;12.67;93.54;102361.53;4991920;28;20038;-66
2024/01/30 01:07:42;;;;;;;15.10;12.68;;;12.30;99.90;;;12.71;93.11;102360.69;4991437;28;20042;-65
2024/01/30 01:10:13;;;;;;;14.60;13.02;;;12.40;99.90;;;12.77;92.67;102355.44;4991506;28;20042;-66
2024/01/30 01:12:42;;;;;;;17.25;13.90;;;12.50;99.90;;;12.72;92.43;102356.28;4991688;28;20038;-66
2024/01/30 01:15:11;;;;;;;17.48;13.25;;;12.50;99.90;;;12.81;92.33;102346.63;4991082;28;20060;-65
2024/01/30 01:17:41;;;;;;;16.63;12.90;;;12.50;99.90;;;12.78;92.26;102335.97;4991601;28;20075;-65
2024/01/30 01:20:11;;;;;;;24.42;13.38;;;12.50;99.90;;;12.61;92.35;102318.97;4991768;28;20042;-66
2024/01/30 01:22:40;;;;;;;16.70;12.77;;;12.40;99.90;;;12.66;92.89;102330.53;4991548;28;20490;-66
2024/01/30 01:25:08;;;;;;;20.95;13.70;;;12.40;99.90;;;12.52;93.00;102325.06;4990301;28;20291;-66
2024/01/30 01:27:40;;;;;;;21.67;13.63;;;12.40;99.90;;;12.50;93.27;102310.88;4991770;28;20092;-65
2024/01/30 01:30:11;;;;;;;17.48;13.88;;;12.30;99.90;;;12.25;94.01;102322.09;4994065;28;20432;-65
2024/01/30 01:32:50;;;;;;;16.55;13.50;;;12.10;99.90;;;12.15;95.33;102341.44;4995228;28;20066;-65
2024/01/30 01:35:18;;;;;;;21.17;14.02;;;11.90;99.90;;;12.09;96.02;102325.44;4995049;28;20392;-66
2024/01/30 01:37:46;;;;;;;16.90;13.55;;;11.90;99.90;;;12.20;95.62;102331.78;4993778;28;20038;-66
2024/01/30 01:40:15;;;;;;;18.27;13.75;;;12.00;99.90;;;12.20;95.90;102346.78;4993904;28;20804;-66
2024/01/30 01:42:43;;;;;;;16.90;13.68;;;12.00;99.90;;;12.24;95.73;102330.94;4994956;28;20050;-66
2024/01/30 01:45:12;;;;;;;18.35;12.77;;;12.00;99.90;;;12.20;95.73;102328.22;4993703;28;20132;-66
2024/01/30 01:47:42;;;;;;;18.08;13.75;;;12.00;99.90;;;12.19;95.78;102334.41;4994807;28;20038;-66
2024/01/30 01:50:11;;;;;;;16.30;13.38;;;12.00;99.90;;;12.18;95.84;102336.16;4994754;28;20121;-66
2024/01/30 01:52:41;;;;;;;16.83;13.77;;;12.00;99.90;;;12.20;95.58;102339.72;4994868;28;20061;-66
2024/01/30 01:55:10;;;;;;;17.15;13.35;;;12.00;99.90;;;12.22;95.78;102332.69;4994618;28;20038;-66
2024/01/30 01:57:40;;;;;;;16.27;13.88;;;12.00;99.90;;;12.18;95.90;102338.81;4994673;28;20042;-66
2024/01/30 02:00:10;;;;;;;19.30;13.25;;;12.00;99.90;;;12.21;95.54;102301.72;4994539;28;20046;-66
2024/01/30 02:02:42;;;;;;;17.20;13.43;;;12.10;99.90;;;12.38;95.39;102332.00;4994740;28;20049;-66
2024/01/30 02:05:10;;;;;;;17.50;13.65;;;12.10;99.90;;;12.43;94.98;102332.03;4994429;28;20539;-66
2024/01/30 02:07:40;;;;;;;19.23;14.10;;;12.20;99.90;;;12.46;94.60;102334.75;4994456;28;20527;-66
2024/01/30 02:10:10;;;;;;;18.60;13.10;;;12.20;99.90;;;12.51;94.46;102315.34;4994203;28;20050;-66
2024/01/30 02:12:38;;;;;;;16.30;13.10;;;12.20;99.90;;;12.48;94.33;102325.94;4994167;28;20042;-66
2024/01/30 02:15:07;;;;;;;17.77;13.02;;;12.20;99.90;;;12.44;94.39;102320.56;4993847;28;20049;-65
2024/01/30 02:17:36;;;;;;;18.63;14.45;;;12.20;99.90;;;12.41;94.27;102325.81;4993439;28;20499;-66
2024/01/30 02:20:07;;;;;;;15.00;12.98;;;12.20;99.90;;;12.45;94.47;102317.03;4994269;28;20050;-66
2024/01/30 02:22:39;;;;;;;15.93;13.00;;;12.20;99.90;;;12.54;94.37;102325.97;4994100;28;20232;-66
2024/01/30 02:25:09;;;;;;;16.52;13.00;;;12.20;99.90;;;12.62;93.67;102331.34;4994427;28;20112;-66
2024/01/30 02:27:37;;;;;;;19.92;13.20;;;12.30;99.90;;;12.61;93.58;102322.53;4994426;28;20034;-66
2024/01/30 02:30:08;;;;;;;15.73;12.68;;;12.30;99.90;;;12.67;93.40;102322.59;4994225;28;20042;-66
2024/01/30 02:32:36;;;;;;;14.90;13.05;;;12.40;99.90;;;12.67;93.04;102319.94;4992949;28;20495;-66
2024/01/30 02:35:05;;;;;;;17.50;12.57;;;12.40;99.90;;;12.79;93.05;102318.28;4994099;28;20042;-66
2024/01/30 02:37:33;;;;;;;16.05;13.00;;;12.50;99.90;;;12.75;92.36;102314.72;4994029;28;20038;-66
2024/01/30 02:40:04;;;;;;;17.40;13.50;;;12.50;99.90;;;12.71;92.88;102312.91;4992713;28;20593;-66
2024/01/30 02:42:32;;;;;;;14.68;12.77;;;12.40;99.90;;;12.66;93.13;102298.66;4994345;28;20043;-66
2024/01/30 02:45:01;;;;;;;15.02;13.02;;;12.40;99.90;;;12.73;92.96;102296.97;4993765;28;20435;-66
2024/01/30 02:47:29;;;;;;;14.50;12.85;;;12.40;99.90;;;12.69;93.11;102299.59;4993621;28;20049;-66
2024/01/30 02:49:57;;;;;;;17.00;13.75;;;12.40;99.90;;;12.57;93.57;102282.66;4993664;28;20049;-66
2024/01/30 02:52:26;;;;;;;16.88;13.88;;;12.30;99.90;;;12.61;93.90;102289.78;4993527;28;20391;-67
2024/01/30 02:54:54;;;;;;;15.73;13.48;;;12.30;99.90;;;12.68;94.23;102294.25;4993805;28;20053;-66
2024/01/30 02:57:24;;;;;;;18.85;13.10;;;12.40;99.90;;;12.65;94.16;102292.50;4993506;28;20054;-66
2024/01/30 02:59:53;;;;;;;15.90;13.57;;;12.40;99.90;;;12.67;94.17;102297.81;4993462;28;20070;-66
2024/01/30 03:02:21;;;;;;;17.45;13.00;;;12.40;99.90;;;12.71;93.84;102296.97;4993595;28;20411;-66
2024/01/30 03:04:49;;;;;;;15.65;12.65;;;12.40;99.90;;;12.63;93.86;102288.94;4993473;28;20125;-66
2024/01/30 03:07:18;;;;;;;16.92;13.18;;;12.40;99.90;;;12.68;94.02;102294.25;4993356;28;20061;-66
2024/01/30 03:09:46;;;;;;;17.25;12.57;;;12.40;99.90;;;12.63;94.05;102285.38;4993935;28;20057;-66
2024/01/30 03:12:15;;;;;;;19.95;12.82;;;12.40;99.90;;;12.65;94.05;102289.84;4993498;28;20424;-66
2024/01/30 03:14:44;;;;;;;17.00;13.38;;;12.40;99.90;;;12.67;94.61;102287.19;4992111;28;20472;-66
2024/01/30 03:17:13;;;;;;;15.05;12.82;;;12.30;99.90;;;12.67;94.28;102289.84;4993733;28;20050;-65
2024/01/30 03:19:41;;;;;;;16.65;13.05;;;12.40;99.90;;;12.65;94.68;102295.16;4992130;28;20384;-65
2024/01/30 03:22:10;;;;;;;16.67;12.40;;;12.40;99.90;;;12.67;94.87;102290.75;4993098;28;20057;-66
2024/01/30 03:24:38;;;;;;;16.25;12.55;;;12.40;99.90;;;12.70;94.81;102297.81;4991914;28;20387;-66
2024/01/30 03:27:07;;;;;;;17.77;13.02;;;12.40;99.90;;;12.65;94.79;102281.88;4993064;28;20046;-65
2024/01/30 03:29:35;;;;;;;18.92;13.90;;;12.40;99.90;;;12.69;94.94;102293.41;4992877;28;20042;-66
2024/01/30 03:32:06;;;;;;;15.63;13.57;;;12.40;99.90;;;12.68;94.99;102287.19;4993022;28;20042;-67
2024/01/30 03:34:34;;;;;;;;;;;12.30;99.90;;;12.72;94.58;102289.91;4993370;28;20038;-66
2024/01/30 03:37:03;;;;;;;18.23;13.80;;;12.40;99.90;;;12.68;95.15;102283.63;4992731;28;19924;-66
2024/01/30 03:39:32;;;;;;;14.85;12.38;;;12.40;99.90;;;12.64;95.07;102285.38;4992909;28;20035;-66
2024/01/30 03:42:00;;;;;;;16.60;13.10;;;12.40;99.90;;;12.54;95.07;102259.63;4992601;28;20043;-66
2024/01/30 03:44:28;;;;;;;17.27;12.95;;;12.40;99.90;;;12.64;94.85;102280.06;4993072;28;20062;-66
2024/01/30 03:46:57;;;;;;;15.68;13.27;;;12.30;99.90;;;12.53;95.25;102275.53;4992623;28;20156;-66
2024/01/30 03:49:26;;;;;;;18.63;13.80;;;12.30;99.90;;;12.57;95.31;102278.25;4992947;28;20174;-66
2024/01/30 03:51:55;;;;;;;20.15;13.40;;;12.30;99.90;;;12.57;95.47;102280.00;4992000;28;20042;-66
2024/01/30 03:54:23;;;;;;;17.73;12.98;;;12.30;99.90;;;12.60;95.38;102285.34;4992679;28;20065;-66
2024/01/30 03:56:52;;;;;;;19.35;13.68;;;12.30;99.90;;;12.57;95.41;102267.63;4992548;28;20038;-66
2024/01/30 03:59:23;;;;;;;18.20;13.43;;;12.30;99.90;;;12.59;95.47;102275.59;4992761;28;20039;-65
2024/01/30 04:01:52;;;;;;;18.42;13.45;;;12.30;99.90;;;12.64;95.32;102274.75;4992481;28;20649;-66
2024/01/30 04:04:21;;;;;;;17.08;13.75;;;12.30;99.90;;;12.61;95.14;102273.84;4992340;28;20523;-66
2024/01/30 04:06:51;;;;;;;16.20;13.18;;;12.30;99.90;;;12.59;95.54;102278.25;4992168;28;20118;-66
2024/01/30 04:09:19;;;;;;;18.13;13.53;;;12.30;99.90;;;12.51;95.60;102271.97;4992395;28;20128;-65
2024/01/30 04:11:48;;;;;;;15.55;12.57;;;12.30;99.90;;;12.56;95.44;102270.28;4992271;28;20435;-66
2024/01/30 04:14:16;;;;;;;18.13;13.13;;;12.20;99.90;;;12.54;95.70;102272.03;4992154;28;20038;-66
2024/01/30 04:16:45;;;;;;;16.27;13.48;;;12.20;99.90;;;12.55;95.67;102272.03;4992157;28;20125;-66
2024/01/30 04:19:14;;;;;;;18.40;13.48;;;12.20;99.90;;;12.59;95.65;102275.59;4992202;28;20125;-66
2024/01/30 04:21:42;;;;;;;17.98;13.32;;;12.30;99.90;;;12.57;95.79;102266.72;4990815;28;20436;-66
2024/01/30 04:24:12;;;;;;;17.02;13.68;;;12.30;99.90;;;12.56;95.88;102263.19;4992577;28;20038;-66
2024/01/30 04:26:41;;;;;;;18.33;13.77;;;12.30;99.90;;;12.59;96.16;102260.56;4992564;28;20058;-66
2024/01/30 04:29:09;;;;;;;16.50;12.52;;;12.30;99.90;;;12.56;95.52;102255.22;4992407;28;20054;-66
2024/01/30 04:31:37;;;;;;;20.48;12.90;;;12.30;99.90;;;12.57;95.96;102264.97;4991995;28;20038;-66
2024/01/30 04:34:06;;;;;;;16.50;12.95;;;12.30;99.90;;;12.52;95.90;102248.09;4992264;28;20494;-66
2024/01/30 04:36:34;;;;;;;14.95;12.32;;;12.30;99.90;;;12.59;95.91;102243.75;4991811;28;20362;-66
2024/01/30 04:39:03;;;;;;;18.00;12.55;;;12.30;99.90;;;12.64;95.62;102250.88;4990614;28;20042;-66
2024/01/30 04:41:33;;;;;;;19.77;13.57;;;12.30;99.90;;;12.53;95.92;102262.25;4991799;28;20042;-66
2024/01/30 04:44:02;;;;;;;16.17;12.98;;;12.30;99.90;;;12.61;95.96;102247.31;4991910;28;20038;-66
2024/01/30 04:46:30;;;;;;;16.38;13.13;;;12.30;99.90;;;12.61;95.87;102242.91;4991735;28;20073;-66
2024/01/30 04:48:58;;;;;;;19.85;13.80;;;12.30;99.90;;;12.58;95.96;102236.66;4991874;28;20546;-66
2024/01/30 04:51:27;;;;;;;17.42;13.57;;;12.30;99.90;;;12.64;95.85;102257.94;4991852;28;20133;-66
2024/01/30 04:53:56;;;;;;;19.35;12.98;;;12.30;99.90;;;12.68;95.94;102254.44;4991550;28;20096;-66
2024/01/30 04:56:24;;;;;;;19.67;13.05;;;12.40;99.90;;;12.69;95.87;102257.13;4991692;28;20117;-66
2024/01/30 04:58:54;;;;;;;16.25;13.18;;;12.40;99.90;;;12.68;95.75;102257.09;4991766;28;20380;-66
2024/01/30 05:01:22;;;;;;;18.60;12.90;;;12.40;99.90;;;12.69;95.70;102250.91;4991316;28;20072;-65
2024/01/30 05:03:50;;;;;;;18.48;13.73;;;12.40;99.90;;;12.70;95.86;102258.91;4993682;28;20034;-66
2024/01/30 05:06:26;;;;;;;16.27;13.05;;;12.40;99.90;;;12.67;96.11;102250.00;4995723;28;20105;-66
2024/01/30 05:08:54;;;;;;;16.17;13.30;;;12.40;99.90;;;12.65;96.31;102252.66;4995755;28;20125;-66
2024/01/30 05:11:23;;;;;;;16.67;13.25;;;12.30;99.90;;;12.68;96.05;102254.44;4995379;28;20574;-66
2024/01/30 05:13:52;;;;;;;16.25;13.25;;;12.40;99.90;;;12.57;96.31;102240.19;4995543;28;20474;-66
2024/01/30 05:16:21;;;;;;;15.23;13.00;;;12.30;99.90;;;12.57;96.28;102246.38;4995311;28;20046;-66
2024/01/30 05:18:49;;;;;;;18.75;13.15;;;12.30;99.90;;;12.57;96.31;102257.00;4995253;28;20476;-66
2024/01/30 05:21:18;;;;;;;16.63;13.15;;;12.30;99.90;;;12.56;96.34;102246.38;4995034;28;20111;-66
2024/01/30 05:23:46;;;;;;;14.93;13.32;;;12.30;99.90;;;12.56;96.32;102243.72;4995461;28;20066;-66
2024/01/30 05:26:14;;;;;;;18.35;13.57;;;12.30;99.90;;;12.52;96.46;102248.09;4993998;28;20042;-66
2024/01/30 05:28:44;;;;;;;17.55;13.73;;;12.30;99.90;;;12.48;96.90;102245.41;4995599;28;20050;-66
2024/01/30 05:31:14;;;;;;;17.33;12.20;;;12.20;99.90;;;12.55;96.74;102244.59;4995480;28;20046;-66
2024/01/30 05:33:42;;;;;;;17.15;12.20;;;12.20;99.90;;;12.45;97.02;102251.56;4995003;28;20301;-66
2024/01/30 05:36:13;;;;;;;19.23;13.77;;;12.20;99.90;;;12.47;96.80;102254.22;4994883;28;20039;-66
2024/01/30 05:38:42;;;;;;;17.25;13.23;;;12.20;99.90;;;12.40;97.02;102241.78;4995236;28;20459;-66
2024/01/30 05:41:10;;;;;;;18.42;12.82;;;12.10;99.90;;;12.50;96.99;102251.63;4993751;28;20627;-66
2024/01/30 05:43:38;;;;;;;16.15;13.00;;;12.20;99.90;;;12.52;96.87;102257.84;4995387;28;20045;-66
2024/01/30 05:46:08;;;;;;;20.92;13.02;;;12.20;99.90;;;12.54;96.93;102259.63;4993829;28;20430;-66
2024/01/30 05:48:38;;;;;;;18.43;13.40;;;12.20;99.90;;;12.54;96.68;102264.91;4994711;28;20120;-66
2024/01/30 05:51:08;;;;;;;20.20;12.65;;;12.20;99.90;;;12.48;96.75;102271.97;4994906;28;20286;-66
2024/01/30 05:53:37;;;;;;;19.00;13.70;;;12.20;99.90;;;12.47;96.92;102264.84;4994685;28;20042;-66
2024/01/30 05:56:06;;;;;;;19.05;12.80;;;12.20;99.90;;;12.50;97.05;102272.88;4994647;28;20042;-66
2024/01/30 05:58:35;;;;;;;16.55;12.98;;;12.20;99.90;;;12.43;97.17;102263.94;4994815;28;20057;-66
2024/01/30 06:01:03;;;;;;;22.08;14.98;;;12.10;99.90;;;12.48;97.51;102266.66;4994735;28;20459;-66
2024/01/30 06:03:31;;;;;;;16.75;12.90;;;12.10;99.90;;;12.52;97.16;102264.00;4994936;28;20066;-66
2024/01/30 06:06:01;;;;;;;20.08;13.77;;;12.20;99.90;;;12.53;97.02;102267.56;4994365;28;20053;-66
2024/01/30 06:08:29;;;;;;;16.37;13.67;;;12.20;99.90;;;12.51;97.24;102266.66;4994380;28;20070;-66
2024/01/30 06:10:58;;;;;;;19.05;13.10;;;12.20;99.90;;;12.56;97.44;102264.97;4994338;28;20042;-66
2024/01/30 06:13:26;;;;;;;17.58;13.57;;;12.20;99.90;;;12.57;97.10;102266.72;4993933;28;20038;-66
2024/01/30 06:15:55;;;;;;;19.15;12.80;;;12.30;99.90;;;12.58;97.25;102263.22;4993898;28;20058;-66
2024/01/30 06:18:23;;;;;;;15.10;12.15;;;12.30;99.90;;;12.55;97.35;102261.41;4993114;28;20057;-66
2024/01/30 06:20:52;;;;;;;16.92;12.85;;;12.30;99.90;;;12.53;97.59;102262.25;4994621;28;20070;-66
2024/01/30 06:23:21;;;;;;;17.10;12.55;;;12.30;99.90;;;12.58;97.47;102265.88;4994575;28;20124;-66
2024/01/30 06:25:50;;;;;;;20.90;12.63;;;12.30;99.90;;;12.57;97.42;102267.63;4994018;28;20435;-66
2024/01/30 06:28:18;;;;;;;18.38;13.63;;;12.30;99.90;;;12.58;97.78;102263.22;4994241;28;20035;-66
2024/01/30 06:30:46;;;;;;;18.80;12.35;;;12.30;99.90;;;12.66;97.78;102273.00;4994196;28;20373;-66
2024/01/30 06:33:15;;;;;;;23.77;13.30;;;12.30;99.90;;;12.67;97.57;102273.91;4993822;28;20109;-66
2024/01/30 06:35:45;;;;;;;15.27;12.32;;;12.40;99.90;;;12.68;97.66;102286.28;4994049;28;20480;-66
2024/01/30 06:38:15;;;;;;;20.10;12.57;;;12.30;99.90;;;12.65;97.75;102280.97;4992952;28;20078;-66
2024/01/30 06:40:45;;;;;;;19.98;12.57;;;12.40;99.90;;;12.71;97.51;102281.03;4993818;28;20050;-65
2024/01/30 06:43:13;;;;;;;19.52;12.52;;;12.40;99.90;;;12.67;97.84;102280.13;4993700;28;20042;-66
2024/01/30 06:45:42;;;;;;;20.02;13.25;;;12.40;99.90;;;12.68;97.93;102275.69;4993963;28;20038;-66
2024/01/30 06:48:11;;;;;;;18.70;12.82;;;12.40;99.90;;;12.70;97.95;102271.28;4993898;28;20538;-66
2024/01/30 06:50:39;;;;;;;23.70;12.57;;;12.40;99.90;;;12.70;98.38;102280.13;4993875;28;20093;-65
2024/01/30 06:53:08;;;;;;;21.02;13.02;;;12.40;99.90;;;12.75;98.18;102280.19;4993874;28;20070;-66
2024/01/30 06:55:36;;;;;;;23.40;12.60;;;12.40;99.90;;;12.74;98.41;102277.53;4994006;28;20038;-66
2024/01/30 06:58:06;;;;;;;22.92;12.77;;;12.40;99.90;;;12.70;98.10;102297.81;4993584;28;20042;-66
2024/01/30 07:00:34;;;;;;;24.25;12.48;;;12.40;99.90;;;12.69;98.58;102280.13;4993513;28;20038;-66
2024/01/30 07:03:03;;;;;;;22.00;12.90;;;12.40;99.90;;;12.77;98.45;102291.72;4991850;28;20049;-66
2024/01/30 07:05:33;;;;;;;19.25;12.60;;;12.50;99.90;;;12.68;98.16;102281.88;4993585;28;20089;-65
2024/01/30 07:08:01;;;;;;;21.55;12.73;;;12.50;99.90;;;12.81;98.10;102290.88;4993443;28;20126;-65
2024/01/30 07:10:31;;;;;;;20.27;13.48;;;12.50;99.90;;;12.78;98.32;102293.47;4993230;28;20046;-66
2024/01/30 07:13:01;;;;;;;21.30;13.25;;;12.50;99.90;;;12.73;98.39;102299.63;4993532;28;20046;-66
2024/01/30 07:15:31;;;;;;;21.40;12.68;;;12.40;99.90;;;12.80;98.96;102297.03;4992745;28;20078;-65
2024/01/30 07:17:59;;;;;;;22.27;13.40;;;12.50;99.90;;;12.82;98.64;102295.28;4993418;28;20066;-66
2024/01/30 07:20:30;;;;;;;20.92;13.32;;;12.50;99.90;;;12.77;99.15;102296.13;4993261;28;20050;-66
2024/01/30 07:22:59;;;;;;;18.88;12.57;;;12.50;99.90;;;12.68;99.06;102276.56;4992982;28;20468;-66
2024/01/30 07:25:29;;;;;;;21.67;13.15;;;12.50;99.90;;;12.82;99.21;102311.22;4992307;28;20043;-66
2024/01/30 07:27:58;;;;;;;21.42;14.20;;;12.50;99.90;;;12.85;99.15;102316.59;4993317;28;20038;-66
2024/01/30 07:30:26;;;;;;;23.48;13.55;;;12.50;99.90;;;12.88;99.05;102303.31;4993398;28;20039;-66
2024/01/30 07:32:56;;;;;;;22.30;13.25;;;12.60;99.90;;;12.83;99.30;102317.44;4993302;28;20054;-65
2024/01/30 07:35:24;;;;;;;23.20;13.47;;;12.50;99.90;;;12.83;99.71;102317.44;4993108;28;20042;-66
2024/01/30 07:37:53;;;;;;;21.75;12.77;;;12.50;99.90;;;12.87;99.51;102320.16;4992590;28;20293;-65
2024/01/30 07:40:21;;;;;;;20.38;13.52;;;12.60;99.90;;;12.72;99.26;102305.81;4992553;28;20070;-66
2024/01/30 07:42:50;;;;;;;19.98;13.88;;;12.60;99.90;;;12.87;99.52;102324.56;4992532;28;20046;-66
2024/01/30 07:45:22;;;;;;;20.42;13.95;;;12.50;99.90;;;12.92;99.36;102334.34;4992748;28;20120;-66
2024/01/30 07:47:50;;;;;;;23.23;14.82;;;12.60;99.90;;;12.93;99.54;102329.94;4992385;28;20050;-66
2024/01/30 07:50:20;;;;;;;23.50;14.38;;;12.60;99.90;;;12.94;99.26;102329.03;4992612;28;20043;-66
2024/01/30 07:52:51;;;;;;;24.67;13.93;;;12.60;99.90;;;12.91;99.44;102316.59;4992643;28;20081;-66
2024/01/30 07:55:19;;;;;;;;;;;12.60;99.90;;;12.94;99.64;102329.94;4992921;28;20550;-66
2024/01/30 07:57:48;;;;;;;24.60;14.70;;;12.70;99.90;;;12.94;99.54;102323.72;4992290;28;19918;-66
2024/01/30 08:00:20;;;;;;;23.25;13.82;;;12.60;99.90;;;13.05;99.28;102341.56;4992254;28;20056;-68
2024/01/30 08:02:49;;;;;;;22.83;14.77;;;12.70;99.90;;;13.05;99.48;102346.88;4991223;28;20062;-70
2024/01/30 08:05:17;;;;;;;23.52;14.02;;;12.70;99.90;;;12.93;99.59;102340.56;4991169;28;20113;-69
2024/01/30 08:07:47;;;;;;;22.23;14.63;;;12.70;99.90;;;13.02;99.55;102359.22;4992298;28;20073;-69
2024/01/30 08:10:18;;;;;;;22.30;14.52;;;12.70;99.90;;;12.97;99.65;102359.16;4992199;28;20093;-68
2024/01/30 08:12:46;;;;;;;22.77;14.95;;;12.70;99.90;;;12.92;99.62;102350.28;4991984;28;20041;-70
2024/01/30 08:15:15;;;;;;;21.10;14.95;;;12.60;99.90;;;12.90;99.81;102356.44;4992046;28;20126;-68
2024/01/30 08:17:44;;;;;;;24.65;14.95;;;12.60;99.90;;;12.96;99.90;102364.47;4991078;28;20070;-67
2024/01/30 08:20:13;;;;;;;25.15;14.10;;;12.60;99.90;;;12.92;99.97;102352.94;4991895;28;20050;-68
2024/01/30 08:22:42;;;;;;;21.30;13.85;;;12.60;99.90;;;12.92;100.00;102354.69;4992211;28;20109;-64
2024/01/30 08:25:12;;;;;;;24.00;14.00;;;12.60;99.90;;;12.78;100.00;102358.97;4991895;28;20120;-66
2024/01/30 08:27:41;;;;;;;25.38;13.48;;;12.50;99.90;;;12.80;100.00;102357.22;4992272;28;20070;-66
2024/01/30 08:30:10;;;;;;;19.85;14.30;;;12.50;99.90;;;12.81;100.00;102362.56;4992263;28;20046;-65
2024/01/30 08:32:39;;;;;;;21.85;13.40;;;12.50;99.90;;;12.86;100.00;102366.16;4990666;28;20104;-63
2024/01/30 08:35:13;;;;;;;25.45;14.32;;;12.50;99.90;;;12.82;100.00;102359.03;4992044;28;20374;-68
2024/01/30 08:37:44;;;;;;;23.83;15.13;;;12.50;99.90;;;12.82;100.00;102359.03;4990516;28;20415;-66
2024/01/30 08:40:14;;;;;;;22.20;14.75;;;12.50;99.90;;;12.83;100.00;102357.25;4991568;28;20109;-68
2024/01/30 08:42:42;;;;;;;22.00;13.75;;;12.50;99.90;;;12.89;100.00;102360.00;4991800;28;20426;-67
2024/01/30 08:45:11;;;;;;;20.33;13.38;;;12.60;99.90;;;12.88;100.00;102359.09;4992308;28;20038;-69
2024/01/30 08:47:41;;;;;;;26.05;14.57;;;12.50;99.90;;;12.76;100.00;102345.69;4991848;28;20041;-66
2024/01/30 08:50:10;;;;;;;23.77;14.02;;;12.60;99.90;;;12.83;100.00;102360.81;4991957;28;20047;-66
2024/01/30 08:52:39;;;;;;;25.08;14.10;;;12.50;99.90;;;12.46;99.86;102285.22;4991738;28;20121;-66
2024/01/30 08:55:09;;;;;;;22.60;14.30;;;12.60;99.90;;;12.75;100.00;102367.81;4991481;28;20427;-67
2024/01/30 08:57:39;;;;;;;24.38;14.32;;;12.50;99.90;;;12.84;100.00;102374.97;4990419;28;20042;-67
2024/01/30 09:00:10;;;;;;;23.40;15.03;;;12.50;99.90;;;12.77;100.00;102381.09;4991648;28;20053;-68
2024/01/30 09:02:38;;;;;;;;;;;12.50;99.90;;;12.81;100.00;102378.50;4992335;28;20356;-66
2024/01/30 09:05:07;;;;;;;23.08;14.25;;;12.50;99.90;;;12.63;99.99;102375.63;4991200;28;19940;-66
2024/01/30 09:07:36;;;;;;;24.00;13.63;;;12.40;99.90;;;12.59;100.00;102379.13;4991411;28;20057;-67
2024/01/30 09:10:06;;;;;;;21.17;13.20;;;12.30;99.90;;;12.61;100.00;102395.97;4990320;28;20042;-66
2024/01/30 09:12:37;;;;;;;21.55;12.88;;;12.30;99.90;;;12.53;100.00;102389.66;4990378;28;20046;-67
2024/01/30 09:15:09;;;;;;;22.48;12.27;;;12.30;99.90;;;12.56;100.00;102392.38;4991036;28;20053;-66
2024/01/30 09:17:37;;;;;;;19.25;10.77;;;12.20;99.90;;;12.52;100.00;102406.47;4992531;28;20058;-67
2024/01/30 09:20:09;;;;;;;25.88;11.02;;;12.20;99.90;;;12.49;100.00;102395.81;4991276;28;20562;-67
2024/01/30 09:22:37;;;;;;;19.83;10.43;;;12.20;99.90;;;12.50;99.74;102403.78;4991443;28;20060;-67
2024/01/30 09:25:06;;;;;;;22.33;10.32;;;12.20;99.90;;;12.46;99.88;102423.22;4993478;28;20089;-67
2024/01/30 09:27:35;;;;;;;23.27;9.93;;;12.20;99.90;;;12.42;99.68;102409.88;4993095;28;20053;-67
2024/01/30 09:30:04;;;;;;;18.92;9.43;;;12.10;99.90;;;12.33;99.43;102418.59;4993215;28;20058;-67
2024/01/30 09:32:34;;;;;;;18.52;8.40;;;12.10;99.90;;;12.25;99.07;102430.88;4993191;28;20046;-67
2024/01/30 09:35:03;;;;;;;22.20;8.10;;;12.00;99.90;;;12.24;99.49;102428.19;4993008;28;20070;-67
2024/01/30 09:37:31;;;;;;;25.52;9.00;;;12.00;99.90;;;12.29;99.37;102413.25;4993055;28;20049;-67
2024/01/30 09:40:00;;;;;;;21.05;8.07;;;12.00;99.90;;;12.28;99.48;102416.75;4993319;28;20357;-67
2024/01/30 09:42:35;;;;;;;24.95;10.20;;;12.00;99.90;;;12.21;99.52;102431.72;4992950;28;20042;-67
2024/01/30 09:45:04;;;;;;;29.27;8.43;;;11.90;99.90;;;12.13;99.66;102445.75;4993132;28;20047;-67
2024/01/30 09:47:41;;;;;;;18.95;6.55;;;11.80;99.90;;;12.10;99.38;102416.53;4992962;28;20042;-67
2024/01/30 09:50:11;;;;;;;18.85;6.68;;;11.80;99.90;;;11.22;99.33;102309.13;4995681;28;20398;-67
2024/01/30 09:52:41;;;;;;;18.40;6.00;;;11.70;99.90;;;11.85;99.44;102441.78;4996866;28;20039;-67
2024/01/30 09:55:10;;;;;;;23.45;6.28;;;11.60;99.90;;;11.62;99.29;102404.28;4996423;28;20117;-67
2024/01/30 09:57:39;;;;;;;16.70;5.97;;;11.60;99.90;;;11.87;99.30;102445.34;4996504;28;20050;-67
2024/01/30 10:00:08;;;;;;;16.20;5.95;;;11.60;99.90;;;11.91;98.97;102456.88;4996427;28;20042;-67
2024/01/30 10:02:42;;;;;;;19.50;6.50;;;11.60;99.90;;;11.85;98.63;102424.97;4996495;28;20546;-67
2024/01/30 10:05:11;;;;;;;15.65;5.78;;;11.60;99.90;;;11.73;97.97;102418.63;4996344;28;20046;-67
2024/01/30 10:07:40;;;;;;;12.63;5.60;;;11.60;99.90;;;11.72;97.96;102440.69;4996292;28;20042;-67